sensor_id;sensor_type;location;lat;lon;timestamp;P1;durP1;ratioP1;P2;durP2;ratioP2
52854;SDS011;38719;51.418;7.286;2022-08-07T00:01:23;4.00;;;3.03;;
52854;SDS011;38719;51.418;7.286;2022-08-07T00:04:11;6.43;;;3.50;;
52854;SDS011;38719;51.418;7.286;2022-08-07T00:06:41;6.65;;;3.60;;
52854;SDS011;38719;51.418;7.286;2022-08-07T00:09:19;4.13;;;3.28;;
52854;SDS011;38719;51.418;7.286;2022-08-07T00:11:58;4.88;;;3.20;;
52854;SDS011;38719;51.418;7.286;2022-08-07T00:14:26;6.72;;;3.25;;
52854;SDS011;38719;51.418;7.286;2022-08-07T00:16:57;4.55;;;3.15;;
52854;SDS011;38719;51.418;7.286;2022-08-07T00:19:26;7.03;;;3.40;;
52854;SDS011;38719;51.418;7.286;2022-08-07T00:22:16;3.38;;;2.58;;
52854;SDS011;38719;51.418;7.286;2022-08-07T00:25:01;5.53;;;2.90;;
52854;SDS011;38719;51.418;7.286;2022-08-07T00:27:30;5.40;;;2.78;;
52854;SDS011;38719;51.418;7.286;2022-08-07T00:30:18;4.15;;;3.03;;
52854;SDS011;38719;51.418;7.286;2022-08-07T00:32:53;6.50;;;3.00;;
52854;SDS011;38719;51.418;7.286;2022-08-07T00:35:21;9.07;;;3.33;;
52854;SDS011;38719;51.418;7.286;2022-08-07T00:37:49;4.25;;;2.63;;
52854;SDS011;38719;51.418;7.286;2022-08-07T00:40:18;5.25;;;3.22;;
52854;SDS011;38719;51.418;7.286;2022-08-07T00:43:05;3.47;;;3.15;;
52854;SDS011;38719;51.418;7.286;2022-08-07T00:45:36;4.35;;;3.20;;
52854;SDS011;38719;51.418;7.286;2022-08-07T00:48:04;3.80;;;3.30;;
52854;SDS011;38719;51.418;7.286;2022-08-07T00:50:36;5.35;;;2.97;;
52854;SDS011;38719;51.418;7.286;2022-08-07T00:53:16;6.03;;;3.35;;
52854;SDS011;38719;51.418;7.286;2022-08-07T00:55:47;8.05;;;3.30;;
52854;SDS011;38719;51.418;7.286;2022-08-07T00:58:29;5.20;;;3.05;;
52854;SDS011;38719;51.418;7.286;2022-08-07T01:00:57;4.30;;;3.20;;
52854;SDS011;38719;51.418;7.286;2022-08-07T01:03:26;4.95;;;3.30;;
52854;SDS011;38719;51.418;7.286;2022-08-07T01:06:14;5.45;;;3.13;;
52854;SDS011;38719;51.418;7.286;2022-08-07T01:08:43;4.55;;;3.17;;
52854;SDS011;38719;51.418;7.286;2022-08-07T01:11:20;8.13;;;3.15;;
52854;SDS011;38719;51.418;7.286;2022-08-07T01:14:08;5.70;;;3.17;;
52854;SDS011;38719;51.418;7.286;2022-08-07T01:16:36;4.07;;;3.30;;
52854;SDS011;38719;51.418;7.286;2022-08-07T01:19:08;4.60;;;3.22;;
52854;SDS011;38719;51.418;7.286;2022-08-07T01:21:46;8.38;;;3.20;;
52854;SDS011;38719;51.418;7.286;2022-08-07T01:24:20;5.45;;;3.40;;
52854;SDS011;38719;51.418;7.286;2022-08-07T01:26:49;6.20;;;3.38;;
52854;SDS011;38719;51.418;7.286;2022-08-07T01:29:19;5.53;;;3.38;;
52854;SDS011;38719;51.418;7.286;2022-08-07T01:31:53;3.80;;;2.88;;
52854;SDS011;38719;51.418;7.286;2022-08-07T01:34:24;5.22;;;3.30;;
52854;SDS011;38719;51.418;7.286;2022-08-07T01:36:57;4.82;;;3.30;;
52854;SDS011;38719;51.418;7.286;2022-08-07T01:39:26;7.60;;;4.65;;
52854;SDS011;38719;51.418;7.286;2022-08-07T01:42:06;4.55;;;3.03;;
52854;SDS011;38719;51.418;7.286;2022-08-07T01:44:54;4.63;;;3.60;;
52854;SDS011;38719;51.418;7.286;2022-08-07T01:47:23;7.25;;;2.97;;
52854;SDS011;38719;51.418;7.286;2022-08-07T01:50:11;6.00;;;3.17;;
52854;SDS011;38719;51.418;7.286;2022-08-07T01:52:41;7.30;;;3.72;;
52854;SDS011;38719;51.418;7.286;2022-08-07T01:55:19;7.82;;;3.20;;
52854;SDS011;38719;51.418;7.286;2022-08-07T01:57:51;9.05;;;3.10;;
52854;SDS011;38719;51.418;7.286;2022-08-07T02:00:41;6.03;;;3.30;;
52854;SDS011;38719;51.418;7.286;2022-08-07T02:03:15;4.47;;;3.38;;
52854;SDS011;38719;51.418;7.286;2022-08-07T02:06:06;5.93;;;3.90;;
52854;SDS011;38719;51.418;7.286;2022-08-07T02:08:59;4.13;;;3.38;;
52854;SDS011;38719;51.418;7.286;2022-08-07T02:11:31;5.43;;;3.25;;
52854;SDS011;38719;51.418;7.286;2022-08-07T02:14:21;4.10;;;3.25;;
52854;SDS011;38719;51.418;7.286;2022-08-07T02:17:05;3.35;;;3.05;;
52854;SDS011;38719;51.418;7.286;2022-08-07T02:19:34;6.13;;;3.20;;
52854;SDS011;38719;51.418;7.286;2022-08-07T02:22:23;4.40;;;3.22;;
52854;SDS011;38719;51.418;7.286;2022-08-07T02:24:54;4.53;;;3.13;;
52854;SDS011;38719;51.418;7.286;2022-08-07T02:27:24;4.28;;;3.13;;
52854;SDS011;38719;51.418;7.286;2022-08-07T02:30:00;4.00;;;3.17;;
52854;SDS011;38719;51.418;7.286;2022-08-07T02:32:32;7.03;;;3.45;;
52854;SDS011;38719;51.418;7.286;2022-08-07T02:35:22;5.35;;;3.15;;
52854;SDS011;38719;51.418;7.286;2022-08-07T02:38:14;6.82;;;3.30;;
52854;SDS011;38719;51.418;7.286;2022-08-07T02:40:54;5.05;;;3.20;;
52854;SDS011;38719;51.418;7.286;2022-08-07T02:43:26;5.75;;;2.90;;
52854;SDS011;38719;51.418;7.286;2022-08-07T02:45:54;3.55;;;2.95;;
52854;SDS011;38719;51.418;7.286;2022-08-07T02:48:28;3.95;;;2.80;;
52854;SDS011;38719;51.418;7.286;2022-08-07T02:50:57;3.63;;;3.03;;
52854;SDS011;38719;51.418;7.286;2022-08-07T02:53:30;3.45;;;2.92;;
52854;SDS011;38719;51.418;7.286;2022-08-07T02:56:06;3.53;;;3.00;;
52854;SDS011;38719;51.418;7.286;2022-08-07T02:58:47;4.32;;;3.25;;
52854;SDS011;38719;51.418;7.286;2022-08-07T03:01:20;3.70;;;3.00;;
52854;SDS011;38719;51.418;7.286;2022-08-07T03:04:02;4.47;;;2.83;;
52854;SDS011;38719;51.418;7.286;2022-08-07T03:06:37;5.75;;;3.20;;
52854;SDS011;38719;51.418;7.286;2022-08-07T03:09:07;6.43;;;3.10;;
52854;SDS011;38719;51.418;7.286;2022-08-07T03:11:38;3.15;;;2.85;;
52854;SDS011;38719;51.418;7.286;2022-08-07T03:14:22;3.72;;;3.00;;
52854;SDS011;38719;51.418;7.286;2022-08-07T03:16:53;4.45;;;2.90;;
52854;SDS011;38719;51.418;7.286;2022-08-07T03:19:21;4.43;;;3.05;;
52854;SDS011;38719;51.418;7.286;2022-08-07T03:21:54;5.47;;;3.10;;
52854;SDS011;38719;51.418;7.286;2022-08-07T03:24:23;3.17;;;2.88;;
52854;SDS011;38719;51.418;7.286;2022-08-07T03:26:54;12.13;;;4.28;;
52854;SDS011;38719;51.418;7.286;2022-08-07T03:29:28;5.63;;;3.00;;
52854;SDS011;38719;51.418;7.286;2022-08-07T03:32:03;6.72;;;3.60;;
52854;SDS011;38719;51.418;7.286;2022-08-07T03:34:39;3.15;;;2.83;;
52854;SDS011;38719;51.418;7.286;2022-08-07T03:37:26;5.82;;;3.42;;
52854;SDS011;38719;51.418;7.286;2022-08-07T03:40:03;3.75;;;3.25;;
52854;SDS011;38719;51.418;7.286;2022-08-07T03:42:43;7.63;;;3.60;;
52854;SDS011;38719;51.418;7.286;2022-08-07T03:45:14;3.40;;;2.97;;
52854;SDS011;38719;51.418;7.286;2022-08-07T03:47:55;6.60;;;3.08;;
52854;SDS011;38719;51.418;7.286;2022-08-07T03:50:24;5.50;;;3.40;;
52854;SDS011;38719;51.418;7.286;2022-08-07T03:52:54;4.80;;;3.22;;
52854;SDS011;38719;51.418;7.286;2022-08-07T03:55:24;4.57;;;3.33;;
52854;SDS011;38719;51.418;7.286;2022-08-07T03:58:15;3.92;;;3.50;;
52854;SDS011;38719;51.418;7.286;2022-08-07T04:01:05;3.65;;;3.17;;
52854;SDS011;38719;51.418;7.286;2022-08-07T04:03:37;5.25;;;3.30;;
52854;SDS011;38719;51.418;7.286;2022-08-07T04:06:20;3.97;;;3.13;;
52854;SDS011;38719;51.418;7.286;2022-08-07T04:09:03;3.75;;;2.75;;
52854;SDS011;38719;51.418;7.286;2022-08-07T04:11:33;4.00;;;3.00;;
52854;SDS011;38719;51.418;7.286;2022-08-07T04:14:23;4.03;;;2.90;;
52854;SDS011;38719;51.418;7.286;2022-08-07T04:17:04;5.85;;;3.15;;
52854;SDS011;38719;51.418;7.286;2022-08-07T04:19:46;3.28;;;2.70;;
52854;SDS011;38719;51.418;7.286;2022-08-07T04:22:19;5.18;;;2.95;;
52854;SDS011;38719;51.418;7.286;2022-08-07T04:24:48;3.35;;;3.05;;
52854;SDS011;38719;51.418;7.286;2022-08-07T04:27:17;4.10;;;3.17;;
52854;SDS011;38719;51.418;7.286;2022-08-07T04:29:52;9.10;;;3.30;;
52854;SDS011;38719;51.418;7.286;2022-08-07T04:32:28;3.10;;;2.80;;
52854;SDS011;38719;51.418;7.286;2022-08-07T04:35:00;6.18;;;3.30;;
52854;SDS011;38719;51.418;7.286;2022-08-07T04:37:30;4.32;;;3.10;;
52854;SDS011;38719;51.418;7.286;2022-08-07T04:40:19;4.07;;;2.90;;
52854;SDS011;38719;51.418;7.286;2022-08-07T04:42:52;4.18;;;3.00;;
52854;SDS011;38719;51.418;7.286;2022-08-07T04:45:37;6.75;;;2.90;;
52854;SDS011;38719;51.418;7.286;2022-08-07T04:48:29;4.03;;;3.00;;
52854;SDS011;38719;51.418;7.286;2022-08-07T04:51:11;5.45;;;3.28;;
52854;SDS011;38719;51.418;7.286;2022-08-07T04:53:54;3.10;;;2.80;;
52854;SDS011;38719;51.418;7.286;2022-08-07T04:56:36;5.93;;;2.97;;
52854;SDS011;38719;51.418;7.286;2022-08-07T04:59:29;4.97;;;2.83;;
52854;SDS011;38719;51.418;7.286;2022-08-07T05:02:23;2.97;;;2.70;;
52854;SDS011;38719;51.418;7.286;2022-08-07T05:04:56;4.05;;;2.85;;
52854;SDS011;38719;51.418;7.286;2022-08-07T05:07:52;2.88;;;2.53;;
52854;SDS011;38719;51.418;7.286;2022-08-07T05:10:27;3.67;;;2.90;;
52854;SDS011;38719;51.418;7.286;2022-08-07T05:13:01;3.97;;;2.85;;
52854;SDS011;38719;51.418;7.286;2022-08-07T05:15:53;4.28;;;3.03;;
52854;SDS011;38719;51.418;7.286;2022-08-07T05:18:24;6.10;;;3.10;;
52854;SDS011;38719;51.418;7.286;2022-08-07T05:20:58;5.70;;;2.92;;
52854;SDS011;38719;51.418;7.286;2022-08-07T05:23:31;5.97;;;2.80;;
52854;SDS011;38719;51.418;7.286;2022-08-07T05:26:03;3.65;;;2.50;;
52854;SDS011;38719;51.418;7.286;2022-08-07T05:28:44;4.63;;;2.80;;
52854;SDS011;38719;51.418;7.286;2022-08-07T05:31:17;3.58;;;2.50;;
52854;SDS011;38719;51.418;7.286;2022-08-07T05:33:50;3.65;;;2.40;;
52854;SDS011;38719;51.418;7.286;2022-08-07T05:36:31;3.75;;;2.40;;
52854;SDS011;38719;51.418;7.286;2022-08-07T05:39:01;4.70;;;2.58;;
52854;SDS011;38719;51.418;7.286;2022-08-07T05:41:49;3.10;;;2.78;;
52854;SDS011;38719;51.418;7.286;2022-08-07T05:44:29;3.85;;;2.95;;
52854;SDS011;38719;51.418;7.286;2022-08-07T05:47:01;6.03;;;2.60;;
52854;SDS011;38719;51.418;7.286;2022-08-07T05:49:46;4.95;;;2.63;;
52854;SDS011;38719;51.418;7.286;2022-08-07T05:52:15;4.25;;;2.30;;
52854;SDS011;38719;51.418;7.286;2022-08-07T05:54:45;3.70;;;2.38;;
52854;SDS011;38719;51.418;7.286;2022-08-07T05:57:23;3.40;;;2.30;;
52854;SDS011;38719;51.418;7.286;2022-08-07T05:59:59;2.50;;;2.17;;
52854;SDS011;38719;51.418;7.286;2022-08-07T06:02:29;4.75;;;2.42;;
52854;SDS011;38719;51.418;7.286;2022-08-07T06:05:04;2.78;;;2.20;;
52854;SDS011;38719;51.418;7.286;2022-08-07T06:07:40;3.97;;;2.28;;
52854;SDS011;38719;51.418;7.286;2022-08-07T06:10:29;6.55;;;2.40;;
52854;SDS011;38719;51.418;7.286;2022-08-07T06:12:58;5.57;;;2.40;;
52854;SDS011;38719;51.418;7.286;2022-08-07T06:15:28;2.45;;;2.03;;
52854;SDS011;38719;51.418;7.286;2022-08-07T06:18:07;2.92;;;2.40;;
52854;SDS011;38719;51.418;7.286;2022-08-07T06:20:40;3.20;;;2.40;;
52854;SDS011;38719;51.418;7.286;2022-08-07T06:23:15;3.15;;;2.38;;
52854;SDS011;38719;51.418;7.286;2022-08-07T06:26:03;2.50;;;2.17;;
52854;SDS011;38719;51.418;7.286;2022-08-07T06:28:32;3.15;;;2.30;;
52854;SDS011;38719;51.418;7.286;2022-08-07T06:30:59;3.97;;;2.22;;
52854;SDS011;38719;51.418;7.286;2022-08-07T06:33:29;3.17;;;2.10;;
52854;SDS011;38719;51.418;7.286;2022-08-07T06:35:59;2.67;;;2.20;;
52854;SDS011;38719;51.418;7.286;2022-08-07T06:38:39;2.40;;;2.20;;
52854;SDS011;38719;51.418;7.286;2022-08-07T06:41:24;2.35;;;2.08;;
52854;SDS011;38719;51.418;7.286;2022-08-07T06:44:15;3.45;;;2.30;;
52854;SDS011;38719;51.418;7.286;2022-08-07T06:46:45;2.33;;;2.13;;
52854;SDS011;38719;51.418;7.286;2022-08-07T06:49:33;3.38;;;2.30;;
52854;SDS011;38719;51.418;7.286;2022-08-07T06:52:19;2.83;;;2.15;;
52854;SDS011;38719;51.418;7.286;2022-08-07T06:55:01;2.35;;;2.15;;
52854;SDS011;38719;51.418;7.286;2022-08-07T06:57:51;3.78;;;2.10;;
52854;SDS011;38719;51.418;7.286;2022-08-07T07:00:24;2.03;;;1.88;;
52854;SDS011;38719;51.418;7.286;2022-08-07T07:02:53;3.95;;;2.22;;
52854;SDS011;38719;51.418;7.286;2022-08-07T07:05:26;3.70;;;2.08;;
52854;SDS011;38719;51.418;7.286;2022-08-07T07:08:16;2.20;;;2.00;;
52854;SDS011;38719;51.418;7.286;2022-08-07T07:10:51;2.80;;;2.33;;
52854;SDS011;38719;51.418;7.286;2022-08-07T07:13:25;4.55;;;2.20;;
52854;SDS011;38719;51.418;7.286;2022-08-07T07:16:17;4.18;;;2.35;;
52854;SDS011;38719;51.418;7.286;2022-08-07T07:18:53;4.90;;;2.08;;
52854;SDS011;38719;51.418;7.286;2022-08-07T07:21:25;2.78;;;2.40;;
52854;SDS011;38719;51.418;7.286;2022-08-07T07:24:17;8.82;;;2.50;;
52854;SDS011;38719;51.418;7.286;2022-08-07T07:26:45;2.40;;;2.03;;
52854;SDS011;38719;51.418;7.286;2022-08-07T07:29:17;3.25;;;2.20;;
52854;SDS011;38719;51.418;7.286;2022-08-07T07:32:10;2.75;;;2.15;;
52854;SDS011;38719;51.418;7.286;2022-08-07T07:34:41;4.00;;;2.40;;
52854;SDS011;38719;51.418;7.286;2022-08-07T07:37:14;5.07;;;2.35;;
52854;SDS011;38719;51.418;7.286;2022-08-07T07:40:05;2.53;;;2.28;;
52854;SDS011;38719;51.418;7.286;2022-08-07T07:42:40;3.42;;;2.38;;
52854;SDS011;38719;51.418;7.286;2022-08-07T07:45:19;3.35;;;2.38;;
52854;SDS011;38719;51.418;7.286;2022-08-07T07:48:09;7.82;;;2.70;;
52854;SDS011;38719;51.418;7.286;2022-08-07T07:51:00;3.72;;;2.33;;
52854;SDS011;38719;51.418;7.286;2022-08-07T07:53:34;6.05;;;3.00;;
52854;SDS011;38719;51.418;7.286;2022-08-07T07:56:18;7.90;;;3.13;;
52854;SDS011;38719;51.418;7.286;2022-08-07T07:58:56;6.72;;;3.63;;
52854;SDS011;38719;51.418;7.286;2022-08-07T08:01:27;8.77;;;4.68;;
52854;SDS011;38719;51.418;7.286;2022-08-07T08:04:16;6.18;;;3.65;;
52854;SDS011;38719;51.418;7.286;2022-08-07T08:06:52;5.78;;;3.20;;
52854;SDS011;38719;51.418;7.286;2022-08-07T08:09:22;5.57;;;3.15;;
52854;SDS011;38719;51.418;7.286;2022-08-07T08:11:56;4.85;;;2.72;;
52854;SDS011;38719;51.418;7.286;2022-08-07T08:14:30;3.38;;;2.40;;
52854;SDS011;38719;51.418;7.286;2022-08-07T08:17:02;7.15;;;3.38;;
52854;SDS011;38719;51.418;7.286;2022-08-07T08:19:52;3.92;;;2.40;;
52854;SDS011;38719;51.418;7.286;2022-08-07T08:22:42;7.82;;;2.28;;
52854;SDS011;38719;51.418;7.286;2022-08-07T08:25:33;3.60;;;2.25;;
52854;SDS011;38719;51.418;7.286;2022-08-07T08:28:23;4.43;;;2.53;;
52854;SDS011;38719;51.418;7.286;2022-08-07T08:31:05;3.30;;;2.25;;
52854;SDS011;38719;51.418;7.286;2022-08-07T08:33:41;3.92;;;2.38;;
52854;SDS011;38719;51.418;7.286;2022-08-07T08:36:22;3.22;;;2.10;;
52854;SDS011;38719;51.418;7.286;2022-08-07T08:38:55;3.40;;;2.10;;
52854;SDS011;38719;51.418;7.286;2022-08-07T08:41:28;3.22;;;1.95;;
52854;SDS011;38719;51.418;7.286;2022-08-07T08:44:25;2.80;;;1.55;;
52854;SDS011;38719;51.418;7.286;2022-08-07T08:47:01;2.97;;;1.90;;
52854;SDS011;38719;51.418;7.286;2022-08-07T08:49:37;2.67;;;1.55;;
52854;SDS011;38719;51.418;7.286;2022-08-07T08:52:30;1.73;;;1.63;;
52854;SDS011;38719;51.418;7.286;2022-08-07T08:55:18;2.25;;;1.90;;
52854;SDS011;38719;51.418;7.286;2022-08-07T08:58:09;3.03;;;1.52;;
52854;SDS011;38719;51.418;7.286;2022-08-07T09:00:57;2.63;;;1.52;;
52854;SDS011;38719;51.418;7.286;2022-08-07T09:03:47;3.95;;;1.33;;
52854;SDS011;38719;51.418;7.286;2022-08-07T09:06:28;1.60;;;1.50;;
52854;SDS011;38719;51.418;7.286;2022-08-07T09:09:18;1.17;;;1.10;;
52854;SDS011;38719;51.418;7.286;2022-08-07T09:12:04;1.33;;;1.20;;
52854;SDS011;38719;51.418;7.286;2022-08-07T09:15:00;1.35;;;1.17;;
52854;SDS011;38719;51.418;7.286;2022-08-07T09:17:56;2.67;;;1.45;;
52854;SDS011;38719;51.418;7.286;2022-08-07T09:20:41;3.17;;;1.50;;
52854;SDS011;38719;51.418;7.286;2022-08-07T09:23:29;2.58;;;1.20;;
52854;SDS011;38719;51.418;7.286;2022-08-07T09:26:30;1.13;;;1.13;;
52854;SDS011;38719;51.418;7.286;2022-08-07T09:29:16;1.48;;;1.10;;
52854;SDS011;38719;51.418;7.286;2022-08-07T09:32:11;0.90;;;0.85;;
52854;SDS011;38719;51.418;7.286;2022-08-07T09:34:57;4.80;;;1.10;;
52854;SDS011;38719;51.418;7.286;2022-08-07T09:37:57;1.30;;;1.20;;
52854;SDS011;38719;51.418;7.286;2022-08-07T09:40:37;1.98;;;1.15;;
52854;SDS011;38719;51.418;7.286;2022-08-07T09:43:19;1.95;;;1.23;;
52854;SDS011;38719;51.418;7.286;2022-08-07T09:46:16;2.45;;;1.63;;
52854;SDS011;38719;51.418;7.286;2022-08-07T09:49:21;1.67;;;1.50;;
52854;SDS011;38719;51.418;7.286;2022-08-07T09:52:22;1.48;;;1.38;;
52854;SDS011;38719;51.418;7.286;2022-08-07T09:55:02;1.40;;;1.30;;
52854;SDS011;38719;51.418;7.286;2022-08-07T09:57:56;1.23;;;1.13;;
52854;SDS011;38719;51.418;7.286;2022-08-07T10:00:43;1.15;;;1.05;;
52854;SDS011;38719;51.418;7.286;2022-08-07T10:03:31;2.40;;;1.45;;
52854;SDS011;38719;51.418;7.286;2022-08-07T10:06:32;1.42;;;1.25;;
52854;SDS011;38719;51.418;7.286;2022-08-07T10:09:31;1.33;;;1.23;;
52854;SDS011;38719;51.418;7.286;2022-08-07T10:12:39;1.13;;;1.00;;
52854;SDS011;38719;51.418;7.286;2022-08-07T10:15:40;5.25;;;1.10;;
52854;SDS011;38719;51.418;7.286;2022-08-07T10:18:21;1.83;;;0.95;;
52854;SDS011;38719;51.418;7.286;2022-08-07T10:21:04;2.58;;;1.30;;
52854;SDS011;38719;51.418;7.286;2022-08-07T10:24:13;1.02;;;1.00;;
52854;SDS011;38719;51.418;7.286;2022-08-07T10:27:13;2.25;;;1.02;;
52854;SDS011;38719;51.418;7.286;2022-08-07T10:30:13;1.35;;;1.25;;
52854;SDS011;38719;51.418;7.286;2022-08-07T10:32:47;2.42;;;1.10;;
52854;SDS011;38719;51.418;7.286;2022-08-07T10:35:28;2.97;;;1.20;;
52854;SDS011;38719;51.418;7.286;2022-08-07T10:38:25;1.05;;;0.95;;
52854;SDS011;38719;51.418;7.286;2022-08-07T10:41:17;1.77;;;0.93;;
52854;SDS011;38719;51.418;7.286;2022-08-07T10:44:14;1.08;;;1.00;;
52854;SDS011;38719;51.418;7.286;2022-08-07T10:47:04;4.40;;;0.98;;
52854;SDS011;38719;51.418;7.286;2022-08-07T10:50:07;1.80;;;0.98;;
52854;SDS011;38719;51.418;7.286;2022-08-07T10:52:46;2.05;;;1.00;;
52854;SDS011;38719;51.418;7.286;2022-08-07T10:55:40;1.55;;;1.17;;
52854;SDS011;38719;51.418;7.286;2022-08-07T10:58:16;2.90;;;0.90;;
52854;SDS011;38719;51.418;7.286;2022-08-07T11:01:16;1.02;;;0.90;;
52854;SDS011;38719;51.418;7.286;2022-08-07T11:07:00;0.82;;;0.80;;
52854;SDS011;38719;51.418;7.286;2022-08-07T11:09:53;1.45;;;1.13;;
52854;SDS011;38719;51.418;7.286;2022-08-07T11:12:37;3.95;;;1.15;;
52854;SDS011;38719;51.418;7.286;2022-08-07T11:15:16;2.13;;;0.98;;
52854;SDS011;38719;51.418;7.286;2022-08-07T11:17:59;2.45;;;1.15;;
52854;SDS011;38719;51.418;7.286;2022-08-07T11:20:36;1.45;;;1.17;;
52854;SDS011;38719;51.418;7.286;2022-08-07T11:23:13;1.45;;;1.20;;
52854;SDS011;38719;51.418;7.286;2022-08-07T11:26:04;4.15;;;1.23;;
52854;SDS011;38719;51.418;7.286;2022-08-07T11:28:39;2.05;;;1.23;;
52854;SDS011;38719;51.418;7.286;2022-08-07T11:31:22;3.50;;;1.40;;
52854;SDS011;38719;51.418;7.286;2022-08-07T11:34:02;1.30;;;1.20;;
52854;SDS011;38719;51.418;7.286;2022-08-07T11:36:38;2.30;;;1.10;;
52854;SDS011;38719;51.418;7.286;2022-08-07T11:39:19;3.55;;;1.30;;
52854;SDS011;38719;51.418;7.286;2022-08-07T11:42:17;1.35;;;1.20;;
52854;SDS011;38719;51.418;7.286;2022-08-07T11:44:55;1.75;;;0.95;;
52854;SDS011;38719;51.418;7.286;2022-08-07T11:47:40;0.90;;;0.90;;
52854;SDS011;38719;51.418;7.286;2022-08-07T11:50:34;3.15;;;1.10;;
52854;SDS011;38719;51.418;7.286;2022-08-07T11:53:26;2.20;;;1.17;;
52854;SDS011;38719;51.418;7.286;2022-08-07T11:56:34;2.15;;;1.30;;
52854;SDS011;38719;51.418;7.286;2022-08-07T11:59:24;7.20;;;2.38;;
52854;SDS011;38719;51.418;7.286;2022-08-07T12:02:28;1.13;;;0.98;;
52854;SDS011;38719;51.418;7.286;2022-08-07T12:05:19;1.25;;;1.10;;
52854;SDS011;38719;51.418;7.286;2022-08-07T12:08:17;2.08;;;1.30;;
52854;SDS011;38719;51.418;7.286;2022-08-07T12:11:09;1.80;;;1.48;;
52854;SDS011;38719;51.418;7.286;2022-08-07T12:13:48;1.92;;;1.27;;
52854;SDS011;38719;51.418;7.286;2022-08-07T12:16:21;1.55;;;1.10;;
52854;SDS011;38719;51.418;7.286;2022-08-07T12:18:56;1.25;;;1.10;;
52854;SDS011;38719;51.418;7.286;2022-08-07T12:21:34;2.03;;;1.20;;
52854;SDS011;38719;51.418;7.286;2022-08-07T12:24:32;1.38;;;1.27;;
52854;SDS011;38719;51.418;7.286;2022-08-07T12:27:07;3.97;;;1.23;;
52854;SDS011;38719;51.418;7.286;2022-08-07T12:29:45;4.35;;;1.30;;
52854;SDS011;38719;51.418;7.286;2022-08-07T12:32:19;3.30;;;1.33;;
52854;SDS011;38719;51.418;7.286;2022-08-07T12:34:55;1.92;;;1.20;;
52854;SDS011;38719;51.418;7.286;2022-08-07T12:37:26;1.83;;;1.30;;
52854;SDS011;38719;51.418;7.286;2022-08-07T12:40:17;1.25;;;0.88;;
52854;SDS011;38719;51.418;7.286;2022-08-07T12:43:06;1.65;;;1.20;;
52854;SDS011;38719;51.418;7.286;2022-08-07T12:45:36;3.92;;;1.30;;
52854;SDS011;38719;51.418;7.286;2022-08-07T12:48:17;2.30;;;1.10;;
52854;SDS011;38719;51.418;7.286;2022-08-07T12:51:16;2.50;;;1.27;;
52854;SDS011;38719;51.418;7.286;2022-08-07T12:53:48;1.33;;;1.10;;
52854;SDS011;38719;51.418;7.286;2022-08-07T12:56:45;1.05;;;0.98;;
52854;SDS011;38719;51.418;7.286;2022-08-07T12:59:22;3.58;;;1.33;;
52854;SDS011;38719;51.418;7.286;2022-08-07T13:02:06;1.80;;;1.30;;
52854;SDS011;38719;51.418;7.286;2022-08-07T13:05:02;1.52;;;1.17;;
52854;SDS011;38719;51.418;7.286;2022-08-07T13:08:06;2.30;;;1.10;;
52854;SDS011;38719;51.418;7.286;2022-08-07T13:10:46;1.48;;;1.38;;
52854;SDS011;38719;51.418;7.286;2022-08-07T13:13:28;1.58;;;1.02;;
52854;SDS011;38719;51.418;7.286;2022-08-07T13:16:21;1.35;;;0.88;;
52854;SDS011;38719;51.418;7.286;2022-08-07T13:18:58;2.67;;;0.93;;
52854;SDS011;38719;51.418;7.286;2022-08-07T13:21:44;1.30;;;1.00;;
52854;SDS011;38719;51.418;7.286;2022-08-07T13:24:33;1.77;;;1.00;;
52854;SDS011;38719;51.418;7.286;2022-08-07T13:27:19;0.80;;;0.80;;
52854;SDS011;38719;51.418;7.286;2022-08-07T13:30:12;1.98;;;1.20;;
52854;SDS011;38719;51.418;7.286;2022-08-07T13:33:02;1.20;;;1.10;;
52854;SDS011;38719;51.418;7.286;2022-08-07T13:35:55;1.90;;;1.08;;
52854;SDS011;38719;51.418;7.286;2022-08-07T13:38:33;1.63;;;1.10;;
52854;SDS011;38719;51.418;7.286;2022-08-07T13:41:10;2.45;;;1.30;;
52854;SDS011;38719;51.418;7.286;2022-08-07T13:43:45;1.25;;;1.00;;
52854;SDS011;38719;51.418;7.286;2022-08-07T13:46:22;1.23;;;1.08;;
52854;SDS011;38719;51.418;7.286;2022-08-07T13:49:03;8.75;;;1.38;;
52854;SDS011;38719;51.418;7.286;2022-08-07T13:51:52;1.02;;;0.93;;
52854;SDS011;38719;51.418;7.286;2022-08-07T13:54:34;1.75;;;0.93;;
52854;SDS011;38719;51.418;7.286;2022-08-07T13:57:14;3.08;;;2.03;;
52854;SDS011;38719;51.418;7.286;2022-08-07T13:59:49;1.45;;;1.08;;
52854;SDS011;38719;51.418;7.286;2022-08-07T14:02:22;1.02;;;0.93;;
52854;SDS011;38719;51.418;7.286;2022-08-07T14:04:59;1.30;;;1.20;;
52854;SDS011;38719;51.418;7.286;2022-08-07T14:07:31;1.20;;;1.10;;
52854;SDS011;38719;51.418;7.286;2022-08-07T14:10:23;1.67;;;1.08;;
52854;SDS011;38719;51.418;7.286;2022-08-07T14:12:54;1.27;;;0.88;;
52854;SDS011;38719;51.418;7.286;2022-08-07T14:15:26;1.33;;;1.23;;
52854;SDS011;38719;51.418;7.286;2022-08-07T14:18:03;1.25;;;0.90;;
52854;SDS011;38719;51.418;7.286;2022-08-07T14:20:58;2.55;;;0.98;;
52854;SDS011;38719;51.418;7.286;2022-08-07T14:23:37;12.57;;;1.15;;
52854;SDS011;38719;51.418;7.286;2022-08-07T14:26:32;4.07;;;1.13;;
52854;SDS011;38719;51.418;7.286;2022-08-07T14:29:04;1.77;;;1.15;;
52854;SDS011;38719;51.418;7.286;2022-08-07T14:31:57;3.00;;;1.00;;
52854;SDS011;38719;51.418;7.286;2022-08-07T14:34:29;1.67;;;1.10;;
52854;SDS011;38719;51.418;7.286;2022-08-07T14:37:11;1.17;;;1.08;;
52854;SDS011;38719;51.418;7.286;2022-08-07T14:40:01;2.72;;;1.17;;
52854;SDS011;38719;51.418;7.286;2022-08-07T14:42:53;1.10;;;1.00;;
52854;SDS011;38719;51.418;7.286;2022-08-07T14:45:43;1.10;;;1.00;;
52854;SDS011;38719;51.418;7.286;2022-08-07T14:48:15;0.93;;;0.88;;
52854;SDS011;38719;51.418;7.286;2022-08-07T14:50:47;0.90;;;0.90;;
52854;SDS011;38719;51.418;7.286;2022-08-07T14:53:19;3.08;;;1.30;;
52854;SDS011;38719;51.418;7.286;2022-08-07T14:56:08;1.50;;;0.95;;
52854;SDS011;38719;51.418;7.286;2022-08-07T14:58:59;0.80;;;0.80;;
52854;SDS011;38719;51.418;7.286;2022-08-07T15:01:39;1.10;;;0.93;;
52854;SDS011;38719;51.418;7.286;2022-08-07T15:04:16;1.42;;;1.02;;
52854;SDS011;38719;51.418;7.286;2022-08-07T15:06:51;1.63;;;1.13;;
52854;SDS011;38719;51.418;7.286;2022-08-07T15:09:20;2.13;;;1.27;;
52854;SDS011;38719;51.418;7.286;2022-08-07T15:12:10;1.23;;;1.15;;
52854;SDS011;38719;51.418;7.286;2022-08-07T15:14:56;1.88;;;1.00;;
52854;SDS011;38719;51.418;7.286;2022-08-07T15:17:52;1.13;;;0.90;;
52854;SDS011;38719;51.418;7.286;2022-08-07T15:20:29;0.90;;;0.90;;
52854;SDS011;38719;51.418;7.286;2022-08-07T15:23:25;3.13;;;1.35;;
52854;SDS011;38719;51.418;7.286;2022-08-07T15:26:15;1.23;;;1.05;;
52854;SDS011;38719;51.418;7.286;2022-08-07T15:28:54;2.90;;;1.10;;
52854;SDS011;38719;51.418;7.286;2022-08-07T15:31:44;3.03;;;0.98;;
52854;SDS011;38719;51.418;7.286;2022-08-07T15:34:35;1.20;;;1.10;;
52854;SDS011;38719;51.418;7.286;2022-08-07T15:37:22;1.92;;;1.25;;
52854;SDS011;38719;51.418;7.286;2022-08-07T15:40:16;1.10;;;1.00;;
52854;SDS011;38719;51.418;7.286;2022-08-07T15:45:35;1.88;;;1.10;;
52854;SDS011;38719;51.418;7.286;2022-08-07T15:48:25;1.65;;;1.20;;
52854;SDS011;38719;51.418;7.286;2022-08-07T15:50:57;1.52;;;1.20;;
52854;SDS011;38719;51.418;7.286;2022-08-07T15:53:52;1.95;;;1.33;;
52854;SDS011;38719;51.418;7.286;2022-08-07T15:56:35;1.75;;;1.38;;
52854;SDS011;38719;51.418;7.286;2022-08-07T15:59:06;3.30;;;1.05;;
52854;SDS011;38719;51.418;7.286;2022-08-07T16:01:43;1.27;;;1.10;;
52854;SDS011;38719;51.418;7.286;2022-08-07T16:04:27;1.20;;;1.10;;
52854;SDS011;38719;51.418;7.286;2022-08-07T16:07:00;1.83;;;1.10;;
52854;SDS011;38719;51.418;7.286;2022-08-07T16:09:51;5.70;;;1.15;;
52854;SDS011;38719;51.418;7.286;2022-08-07T16:12:29;1.48;;;1.38;;
52854;SDS011;38719;51.418;7.286;2022-08-07T16:15:06;0.90;;;0.90;;
52854;SDS011;38719;51.418;7.286;2022-08-07T16:18:15;2.25;;;1.10;;